createdAt,value
2018-10-16T00:04:28.183Z,88.10
2018-10-16T00:09:31.398Z,88.00
2018-10-16T00:14:34.496Z,88.10
2018-10-16T00:19:37.697Z,88.40
2018-10-16T00:24:40.846Z,88.60
2018-10-16T00:29:44.052Z,88.80
2018-10-16T00:34:47.236Z,89.10
2018-10-16T00:39:50.374Z,89.10
2018-10-16T00:44:53.513Z,89.50
2018-10-16T00:49:56.704Z,89.80
2018-10-16T00:54:59.904Z,89.70
2018-10-16T01:00:02.974Z,89.30
2018-10-16T01:05:07.195Z,89.60
2018-10-16T01:10:11.146Z,89.40
2018-10-16T01:15:14.385Z,89.70
2018-10-16T01:20:17.509Z,89.90
2018-10-16T01:25:20.723Z,90.00
2018-10-16T01:30:23.854Z,89.60
2018-10-16T01:35:27.062Z,89.50
2018-10-16T01:40:30.268Z,89.70
2018-10-16T01:45:33.504Z,90.00
2018-10-16T01:50:36.693Z,90.10
2018-10-16T01:55:39.850Z,90.00
2018-10-16T02:00:42.991Z,90.00
2018-10-16T02:05:46.158Z,90.10
2018-10-16T02:10:49.370Z,90.20
2018-10-16T02:15:52.497Z,90.10
2018-10-16T02:20:55.650Z,90.30
2018-10-16T02:25:58.793Z,90.20
2018-10-16T02:31:01.931Z,90.30
2018-10-16T02:36:05.196Z,90.40
2018-10-16T02:41:08.372Z,90.40
2018-10-16T02:46:11.569Z,90.40
2018-10-16T02:51:14.712Z,90.40
2018-10-16T02:56:17.863Z,90.50
2018-10-16T03:01:21.023Z,90.70
2018-10-16T03:06:24.235Z,90.80
2018-10-16T03:11:27.406Z,90.90
2018-10-16T03:16:30.590Z,90.90
2018-10-16T03:21:33.793Z,91.00
2018-10-16T03:26:37.246Z,91.20
2018-10-16T03:31:40.676Z,91.30
2018-10-16T03:36:43.841Z,91.50
2018-10-16T03:41:46.981Z,91.80
2018-10-16T03:46:50.149Z,91.50
2018-10-16T03:51:53.357Z,91.40
2018-10-16T03:56:56.619Z,91.40
2018-10-16T04:01:59.812Z,91.50
2018-10-16T04:07:03.032Z,91.50
2018-10-16T04:12:06.508Z,91.80
2018-10-16T04:17:09.735Z,91.50
2018-10-16T04:22:12.873Z,91.50
2018-10-16T04:27:16.000Z,91.60
2018-10-16T04:32:19.165Z,91.60
2018-10-16T04:37:22.405Z,91.60
2018-10-16T04:42:25.566Z,91.70
2018-10-16T04:47:28.769Z,91.70
2018-10-16T04:52:31.978Z,91.90
2018-10-16T04:57:35.248Z,92.00
2018-10-16T05:02:39.857Z,92.10
2018-10-16T05:07:42.999Z,92.00
2018-10-16T05:12:46.173Z,91.90
2018-10-16T05:17:49.345Z,92.00
2018-10-16T05:22:52.830Z,92.20
2018-10-16T05:27:56.437Z,92.30
2018-10-16T05:32:59.620Z,92.40
2018-10-16T05:38:02.817Z,92.60
2018-10-16T05:43:06.521Z,92.40
2018-10-16T05:48:09.689Z,92.50
2018-10-16T05:53:12.798Z,92.40
2018-10-16T05:58:15.965Z,92.50
2018-10-16T06:03:19.128Z,92.40
2018-10-16T06:08:22.347Z,92.30
2018-10-16T06:13:25.547Z,92.40
2018-10-16T06:18:28.697Z,92.20
2018-10-16T06:23:31.850Z,92.10
2018-10-16T06:28:34.974Z,92.10
2018-10-16T06:33:38.133Z,91.80
2018-10-16T06:38:41.310Z,91.30
2018-10-16T06:43:44.381Z,90.80
2018-10-16T06:48:47.798Z,90.20
2018-10-16T06:53:50.628Z,88.30
2018-10-16T06:58:53.742Z,86.10
2018-10-16T07:03:56.911Z,83.90
2018-10-16T07:09:00.070Z,81.10
2018-10-16T07:14:03.290Z,78.60
2018-10-16T07:19:06.904Z,75.90
2018-10-16T07:24:10.202Z,73.90
2018-10-16T07:29:13.385Z,72.40
2018-10-16T07:34:16.689Z,74.60
2018-10-16T07:39:19.846Z,74.60
2018-10-16T07:44:22.984Z,76.50
2018-10-16T07:49:26.159Z,78.40
2018-10-16T07:54:29.351Z,80.50
2018-10-16T07:59:32.564Z,82.80
2018-10-16T08:04:35.674Z,84.10
2018-10-16T08:09:38.834Z,84.30
2018-10-16T08:14:41.999Z,84.30
2018-10-16T08:19:45.133Z,84.60
2018-10-16T08:24:48.233Z,83.50
2018-10-16T08:29:51.475Z,84.10
2018-10-16T08:34:54.794Z,83.90
2018-10-16T08:39:59.281Z,84.00
2018-10-16T08:45:29.332Z,83.00
2018-10-16T08:51:09.158Z,82.30
2018-10-16T08:56:12.242Z,81.80
2018-10-16T09:01:15.418Z,81.90
2018-10-16T09:06:18.620Z,81.50
2018-10-16T09:11:21.739Z,81.20
2018-10-16T09:16:25.092Z,80.50
2018-10-16T09:21:28.250Z,79.10
2018-10-16T09:26:31.438Z,77.70
2018-10-16T09:31:37.056Z,75.10
2018-10-16T09:36:40.208Z,70.10
2018-10-16T09:41:43.385Z,64.30
2018-10-16T09:46:46.495Z,57.10
2018-10-16T09:51:49.680Z,46.80
2018-10-16T09:56:52.828Z,40.60
2018-10-16T10:01:56.305Z,39.20
2018-10-16T10:06:59.468Z,41.80
2018-10-16T10:12:02.627Z,44.80
2018-10-16T10:17:05.774Z,44.00
2018-10-16T10:22:08.903Z,41.60
2018-10-16T10:27:12.108Z,37.80
2018-10-16T10:32:15.197Z,36.10
2018-10-16T10:37:18.395Z,33.80
2018-10-16T10:42:21.721Z,32.70
2018-10-16T10:47:24.793Z,31.70
2018-10-16T10:52:27.959Z,31.20
2018-10-16T10:57:31.117Z,30.60
2018-10-16T11:02:34.352Z,29.70
2018-10-16T11:07:37.438Z,30.00
2018-10-16T11:12:41.307Z,30.00
2018-10-16T11:17:44.436Z,29.80
2018-10-16T11:22:47.597Z,30.00
2018-10-16T11:27:50.757Z,29.80
2018-10-16T11:32:53.883Z,29.20
2018-10-16T11:37:57.028Z,29.10
2018-10-16T11:43:00.203Z,28.80
2018-10-16T11:48:03.341Z,28.30
2018-10-16T11:53:06.550Z,28.40
2018-10-16T11:58:09.765Z,27.40
2018-10-16T12:03:12.942Z,28.40
2018-10-16T12:08:16.199Z,29.60
2018-10-16T12:13:19.298Z,29.20
2018-10-16T12:18:25.543Z,28.50
2018-10-16T12:23:28.636Z,29.00
2018-10-16T12:28:31.812Z,29.40
2018-10-16T12:33:35.024Z,28.90
2018-10-16T12:38:38.262Z,29.40
2018-10-16T12:43:41.505Z,29.20
2018-10-16T12:48:44.472Z,29.20
2018-10-16T12:53:47.675Z,29.30
2018-10-16T12:58:50.846Z,29.40
2018-10-16T13:03:54.064Z,29.60
2018-10-16T13:08:57.294Z,30.00
2018-10-16T13:14:00.428Z,30.70
2018-10-16T13:19:03.622Z,32.90
2018-10-16T13:24:06.840Z,33.90
2018-10-16T13:29:10.031Z,34.40
2018-10-16T13:34:13.162Z,34.80
2018-10-16T13:39:16.271Z,35.70
2018-10-16T13:44:19.412Z,36.50
2018-10-16T13:49:22.570Z,37.30
2018-10-16T13:54:25.665Z,38.20
2018-10-16T13:59:28.866Z,38.90
2018-10-16T14:04:32.032Z,38.60
2018-10-16T14:09:35.213Z,38.50
2018-10-16T14:14:38.355Z,39.20
2018-10-16T14:19:41.514Z,39.40
2018-10-16T14:24:44.732Z,39.60
2018-10-16T14:29:47.924Z,39.40
2018-10-16T14:34:51.152Z,40.30
2018-10-16T14:39:54.328Z,40.70
2018-10-16T14:44:57.501Z,40.50
2018-10-16T14:50:00.680Z,40.70
2018-10-16T14:55:04.160Z,40.90
2018-10-16T15:00:09.145Z,41.30
2018-10-16T15:05:12.602Z,41.10
2018-10-16T15:10:15.851Z,41.70
2018-10-16T15:15:19.018Z,41.90
2018-10-16T15:20:22.118Z,42.20
2018-10-16T15:25:25.276Z,42.50
2018-10-16T15:30:28.474Z,42.80
2018-10-16T15:35:31.674Z,43.10
2018-10-16T15:40:34.856Z,43.70
2018-10-16T15:45:37.983Z,43.60
2018-10-16T15:50:41.195Z,43.80
2018-10-16T15:55:44.291Z,44.30
2018-10-16T16:00:47.453Z,44.70
2018-10-16T16:05:50.610Z,44.80
2018-10-16T16:10:53.719Z,45.30
2018-10-16T16:15:56.895Z,45.50
2018-10-16T16:21:00.017Z,45.90
2018-10-16T16:26:03.243Z,46.20
2018-10-16T16:31:06.373Z,46.70
2018-10-16T16:36:09.551Z,47.30
2018-10-16T16:41:12.661Z,47.70
2018-10-16T16:46:15.802Z,48.10
2018-10-16T16:51:18.988Z,48.30
2018-10-16T16:56:22.055Z,48.80
2018-10-16T17:01:25.181Z,49.00
2018-10-16T17:06:29.239Z,49.50
2018-10-16T17:11:32.391Z,50.00
2018-10-16T17:16:35.681Z,50.70
2018-10-16T17:21:38.929Z,51.10
2018-10-16T17:26:42.168Z,52.00
2018-10-16T17:31:45.259Z,52.80
2018-10-16T17:36:48.375Z,53.70
2018-10-16T17:41:51.561Z,54.90
2018-10-16T17:46:54.715Z,55.60
2018-10-16T17:51:57.813Z,56.00
2018-10-16T17:57:01.005Z,56.20
2018-10-16T18:02:04.295Z,56.40
2018-10-16T18:07:07.493Z,56.80
2018-10-16T18:12:10.619Z,57.00
2018-10-16T18:17:13.840Z,56.80
2018-10-16T18:22:16.976Z,57.00
2018-10-16T18:27:20.170Z,57.40
2018-10-16T18:32:23.243Z,57.90
2018-10-16T18:37:26.413Z,58.30
2018-10-16T18:42:29.564Z,58.50
2018-10-16T18:47:32.748Z,58.70
2018-10-16T18:52:35.916Z,58.80
2018-10-16T18:57:39.134Z,59.10
2018-10-16T19:02:42.657Z,59.70
2018-10-16T19:07:45.728Z,60.50
2018-10-16T19:12:48.889Z,61.10
2018-10-16T19:17:52.047Z,62.20
2018-10-16T19:22:55.218Z,64.10
2018-10-16T19:27:58.375Z,64.90
2018-10-16T19:33:01.519Z,66.30
2018-10-16T19:38:04.959Z,66.60
2018-10-16T19:43:08.108Z,66.80
2018-10-16T19:48:11.274Z,66.10
2018-10-16T19:53:14.390Z,66.00
2018-10-16T19:58:17.561Z,66.60
2018-10-16T20:03:20.665Z,66.50
2018-10-16T20:08:23.825Z,66.30
2018-10-16T20:13:27.012Z,67.20
2018-10-16T20:18:30.721Z,67.40
2018-10-16T20:23:34.167Z,68.80
2018-10-16T20:28:37.686Z,69.40
2018-10-16T20:33:41.044Z,70.10
2018-10-16T20:38:44.234Z,71.00
2018-10-16T20:43:47.447Z,71.90
2018-10-16T20:48:50.711Z,72.10
2018-10-16T20:53:54.073Z,72.50
2018-10-16T20:58:57.190Z,72.70
2018-10-16T21:04:00.603Z,73.00
2018-10-16T21:09:04.615Z,72.70
2018-10-16T21:14:07.973Z,73.60
2018-10-16T21:19:11.423Z,74.90
2018-10-16T21:24:14.557Z,75.00
2018-10-16T21:29:17.684Z,75.10
2018-10-16T21:34:20.883Z,75.20
2018-10-16T21:39:24.230Z,75.60
2018-10-16T21:44:27.452Z,76.40
2018-10-16T21:49:30.621Z,76.80
2018-10-16T21:54:33.875Z,77.10
2018-10-16T21:59:37.075Z,78.10
2018-10-16T22:04:41.062Z,78.30
2018-10-16T22:09:44.218Z,78.60
2018-10-16T22:14:47.376Z,78.30
2018-10-16T22:19:50.568Z,78.50
2018-10-16T22:24:53.707Z,78.80
2018-10-16T22:29:56.855Z,78.90
2018-10-16T22:35:00.122Z,79.00
2018-10-16T22:40:03.227Z,79.30
2018-10-16T22:45:07.096Z,79.20
2018-10-16T22:50:12.051Z,79.30
2018-10-16T22:55:15.269Z,79.80
2018-10-16T23:00:19.441Z,80.80
2018-10-16T23:05:22.603Z,80.60
2018-10-16T23:10:25.789Z,81.00
2018-10-16T23:15:28.904Z,81.80
2018-10-16T23:20:32.652Z,82.70
2018-10-16T23:25:35.707Z,83.20
2018-10-16T23:30:38.861Z,83.40
2018-10-16T23:35:42.031Z,83.70
2018-10-16T23:40:45.207Z,83.90
2018-10-16T23:45:48.466Z,84.10
2018-10-16T23:50:51.612Z,84.30
2018-10-16T23:55:54.747Z,85.00
